Time;durP1;ratioP1;P1;durP2;ratioP2;P2;SDS_P1;SDS_P2;PMS_P1;PMS_P2;Temp;Humidity;BMP_temperature;BMP_pressure;BME280_temperature;BME280_humidity;BME280_pressure;Samples;Min_cycle;Max_cycle;Signal;HPM_P1;HPM_P2
2023/01/17 00:01:56;;;;;;;;;;;2.50;99.90;;;;;;5127016;28;20265;-71
2023/01/17 00:09:55;;;;;;;;;;;2.40;99.90;;;;;;5126937;28;19950;-71
2023/01/17 00:12:23;;;;;;;;;;;2.40;99.90;;;;;;5126870;28;20111;-71
2023/01/17 00:14:51;;;;;;;;;;;2.40;99.90;;;;;;5126535;28;19926;-70
2023/01/17 00:17:18;;;;;;;;;;;2.40;99.90;;;;;;5125825;28;19920;-70
2023/01/17 01:34:22;;;;;;;;;;;2.10;99.90;;;;;;5124947;28;20305;-70
2023/01/17 01:36:49;;;;;;;;;;;2.10;99.90;;;;;;5124473;28;19951;-70
2023/01/17 01:39:17;;;;;;;;;;;2.10;99.90;;;;;;5125337;28;19958;-70
2023/01/17 01:57:02;;;;;;;;;;;2.00;99.90;;;;;;5123907;28;19915;-70
2023/01/17 01:59:30;;;;;;;;;;;2.00;99.90;;;;;;5124941;28;19995;-70
2023/01/17 02:01:57;;;;;;;;;;;1.90;99.90;;;;;;5124568;28;20215;-70
2023/01/17 02:04:25;;;;;;;;;;;1.90;99.90;;;;;;5124944;28;19926;-70
2023/01/17 02:07:09;;;;;;;;;;;1.90;99.90;;;;;;5121575;28;19919;-70
2023/01/17 02:09:36;;;;;;;;;;;1.80;99.90;;;;;;5124766;28;19920;-70
2023/01/17 02:12:05;;;;;;;;;;;1.80;99.90;;;;;;5124722;28;19954;-71
2023/01/17 02:14:31;;;;;;;;;;;1.80;99.90;;;;;;5124538;28;19982;-70
2023/01/17 02:17:17;;;;;;;;;;;1.70;99.90;;;;;;5122248;28;20008;-71
2023/01/17 02:19:57;;;;;;;;;;;1.70;99.90;;;;;;5124664;28;19977;-70
2023/01/17 02:22:42;;;;;;;;;;;1.70;99.90;;;;;;5116642;28;19928;-71
2023/01/17 02:25:21;;;;;;;;;;;1.70;99.90;;;;;;5103859;28;19920;-71
2023/01/17 02:27:58;;;;;;;;;;;1.60;99.90;;;;;;5123231;28;19919;-70
2023/01/17 02:30:36;;;;;;;;;;;1.60;99.90;;;;;;5124451;28;19920;-71
2023/01/17 02:33:06;;;;;;;;;;;1.60;99.90;;;;;;5124172;28;19920;-70
2023/01/17 02:35:39;;;;;;;;;;;1.70;99.90;;;;;;5124024;28;19919;-70
2023/01/17 02:38:10;;;;;;;;;;;1.60;99.90;;;;;;5123791;28;19920;-70
2023/01/17 02:40:53;;;;;;;;;;;1.60;99.90;;;;;;5122045;28;19920;-70
2023/01/17 02:43:20;;;;;;;;;;;1.60;99.90;;;;;;5124437;28;19920;-70
2023/01/17 02:45:48;;;;;;;;;;;1.50;99.90;;;;;;5126109;28;19926;-71
2023/01/17 02:48:15;;;;;;;;;;;1.50;99.90;;;;;;5128287;28;19919;-70
2023/01/17 02:50:58;;;;;;;;;;;1.50;99.90;;;;;;5125816;28;19920;-70
2023/01/17 02:53:34;;;;;;;;;;;1.50;99.90;;;;;;5124830;28;19919;-71
2023/01/17 02:56:05;;;;;;;;;;;1.50;99.90;;;;;;5127521;28;20115;-72
2023/01/17 02:58:38;;;;;;;;;;;1.50;99.90;;;;;;5128374;28;19926;-70
2023/01/17 03:01:11;;;;;;;;;;;1.50;99.90;;;;;;5128058;28;19926;-70
2023/01/17 03:03:45;;;;;;;;;;;1.40;99.90;;;;;;5127953;28;20208;-71
2023/01/17 03:06:13;;;;;;;;;;;1.40;99.90;;;;;;5127232;28;19919;-70
2023/01/17 03:08:40;;;;;;;;;;;1.40;99.90;;;;;;5128200;28;19919;-71
2023/01/17 03:11:21;;;;;;;;;;;1.50;99.90;;;;;;5125717;28;19926;-70
2023/01/17 03:13:48;;;;;;;;;;;1.40;99.90;;;;;;5127756;28;19920;-71
2023/01/17 03:16:18;;;;;;;;;;;1.40;99.90;;;;;;5127105;28;19919;-70
2023/01/17 03:18:45;;;;;;;;;;;1.40;99.90;;;;;;5127703;28;19927;-70
2023/01/17 03:21:12;;;;;;;;;;;1.30;99.90;;;;;;5127879;28;19951;-70
2023/01/17 03:23:38;;;;;;;;;;;1.30;99.90;;;;;;5127330;28;20192;-71
2023/01/17 03:26:05;;;;;;;;;;;1.30;99.90;;;;;;5127099;28;19986;-70
2023/01/17 03:28:32;;;;;;;;;;;1.30;99.90;;;;;;5127946;28;20240;-70
2023/01/17 03:30:58;;;;;;;;;;;1.20;99.90;;;;;;5127700;28;19990;-71
2023/01/17 03:33:26;;;;;;;;;;;1.30;99.90;;;;;;5127757;28;19952;-71
2023/01/17 03:35:56;;;;;;;;;;;1.30;99.90;;;;;;5127354;28;19982;-70
2023/01/17 03:38:23;;;;;;;;;;;1.20;99.90;;;;;;5127385;28;19926;-71
2023/01/17 03:40:50;;;;;;;;;;;1.20;99.90;;;;;;5127605;28;19928;-71
2023/01/17 03:43:16;;;;;;;;;;;1.20;99.90;;;;;;5127240;28;19919;-70
2023/01/17 03:45:43;;;;;;;;;;;1.20;99.90;;;;;;5127223;28;19951;-70
2023/01/17 03:48:10;;;;;;;;;;;1.20;99.90;;;;;;5126914;28;20278;-71
2023/01/17 03:50:38;;;;;;;;;;;1.20;99.90;;;;;;5126997;28;19920;-70
2023/01/17 03:53:05;;;;;;;;;;;1.20;99.90;;;;;;5127245;28;19919;-70
2023/01/17 03:55:31;;;;;;;;;;;1.20;99.90;;;;;;5126863;28;20266;-71
2023/01/17 03:57:58;;;;;;;;;;;1.10;99.90;;;;;;5126542;28;19920;-70
2023/01/17 04:00:24;;;;;;;;;;;1.20;99.90;;;;;;5126885;28;20393;-71
2023/01/17 04:02:51;;;;;;;;;;;1.20;99.90;;;;;;5127110;28;19999;-70
2023/01/17 04:05:18;;;;;;;;;;;1.20;99.90;;;;;;5126931;28;19979;-70
2023/01/17 04:07:46;;;;;;;;;;;1.20;99.90;;;;;;5126061;28;19982;-71
2023/01/17 04:10:12;;;;;;;;;;;1.20;99.90;;;;;;5127099;28;19982;-70
2023/01/17 04:12:40;;;;;;;;;;;1.30;99.90;;;;;;5127028;28;20080;-70
2023/01/17 04:15:07;;;;;;;;;;;1.30;99.90;;;;;;5126590;28;20216;-70
2023/01/17 04:17:34;;;;;;;;;;;1.30;99.90;;;;;;5126223;28;19920;-71
2023/01/17 04:20:00;;;;;;;;;;;1.20;99.90;;;;;;5126574;28;20211;-70
2023/01/17 04:22:27;;;;;;;;;;;1.30;99.90;;;;;;5126641;28;19978;-70
2023/01/17 04:24:55;;;;;;;;;;;1.30;99.90;;;;;;5126299;28;20242;-70
2023/01/17 04:27:21;;;;;;;;;;;1.30;99.90;;;;;;5126116;28;19919;-71
2023/01/17 04:29:48;;;;;;;;;;;1.30;99.90;;;;;;5126614;28;20161;-70
2023/01/17 04:32:15;;;;;;;;;;;1.30;99.90;;;;;;5126503;28;19962;-71
2023/01/17 04:34:41;;;;;;;;;;;1.30;99.90;;;;;;5126457;28;19983;-71
2023/01/17 04:37:08;;;;;;;;;;;1.20;99.90;;;;;;5125941;28;19983;-70
2023/01/17 04:39:35;;;;;;;;;;;1.20;99.90;;;;;;5126440;28;19957;-70
2023/01/17 04:42:03;;;;;;;;;;;1.20;99.90;;;;;;5126125;28;20255;-71
2023/01/17 04:44:30;;;;;;;;;;;1.20;99.90;;;;;;5126494;28;19920;-71
2023/01/17 04:46:56;;;;;;;;;;;1.10;99.90;;;;;;5125573;28;20186;-71
2023/01/17 04:49:23;;;;;;;;;;;1.10;99.90;;;;;;5126221;28;19951;-70
2023/01/17 04:51:49;;;;;;;;;;;1.10;99.90;;;;;;5125881;28;20123;-70
2023/01/17 04:54:16;;;;;;;;;;;1.10;99.90;;;;;;5126122;28;19955;-70
2023/01/17 04:56:43;;;;;;;;;;;1.10;99.90;;;;;;5125329;28;19986;-70
2023/01/17 04:59:11;;;;;;;;;;;1.00;99.90;;;;;;5125770;28;19919;-70
2023/01/17 05:01:38;;;;;;;;;;;1.00;99.90;;;;;;5125606;28;20203;-71
2023/01/17 05:04:04;;;;;;;;;;;0.90;99.90;;;;;;5125837;28;19926;-70
2023/01/17 05:06:31;;;;;;;;;;;0.90;99.90;;;;;;5125291;28;19928;-71
2023/01/17 05:08:58;;;;;;;;;;;0.90;99.90;;;;;;5125009;28;19978;-71
2023/01/17 05:11:24;;;;;;;;;;;0.90;99.90;;;;;;5125724;28;19987;-71
2023/01/17 05:13:51;;;;;;;;;;;0.90;99.90;;;;;;5125365;28;20262;-71
2023/01/17 05:16:19;;;;;;;;;;;0.90;99.90;;;;;;5125031;28;19966;-71
2023/01/17 05:18:46;;;;;;;;;;;0.80;99.90;;;;;;5125685;28;19987;-70
2023/01/17 05:21:12;;;;;;;;;;;0.80;99.90;;;;;;5125291;28;20143;-71
2023/01/17 05:23:41;;;;;;;;;;;0.90;99.90;;;;;;5125109;28;19959;-71
2023/01/17 05:26:08;;;;;;;;;;;0.80;99.90;;;;;;5124785;28;19927;-71
2023/01/17 05:28:34;;;;;;;;;;;0.80;99.90;;;;;;5124996;28;20230;-71
2023/01/17 05:31:01;;;;;;;;;;;0.80;99.90;;;;;;5125262;28;19955;-70
2023/01/17 05:33:29;;;;;;;;;;;0.80;99.90;;;;;;5124674;28;19926;-70
2023/01/17 05:35:55;;;;;;;;;;;0.80;99.90;;;;;;5124647;28;19995;-70
2023/01/17 05:38:22;;;;;;;;;;;0.80;99.90;;;;;;5118963;28;19920;-70
2023/01/17 05:40:49;;;;;;;;;;;0.80;99.90;;;;;;5104651;28;19920;-71
2023/01/17 05:43:16;;;;;;;;;;;0.80;99.90;;;;;;5104868;28;19920;-69
2023/01/17 05:45:42;;;;;;;;;;;0.80;99.90;;;;;;5117438;27;20166;-69
2023/01/17 05:48:09;;;;;;;;;;;0.80;99.90;;;;;;5124494;28;19919;-69
2023/01/17 05:50:38;;;;;;;;;;;0.80;99.90;;;;;;5105813;28;19979;-69
2023/01/17 05:53:05;;;;;;;;;;;0.70;99.90;;;;;;5108379;28;19979;-69
2023/01/17 05:55:32;;;;;;;;;;;0.70;99.90;;;;;;5124560;28;19926;-69
2023/01/17 05:57:59;;;;;;;;;;;0.80;99.90;;;;;;5124283;28;19919;-69
2023/01/17 06:00:26;;;;;;;;;;;0.80;99.90;;;;;;5124915;28;19926;-69
2023/01/17 06:02:53;;;;;;;;;;;0.80;99.90;;;;;;5109992;28;20115;-70
2023/01/17 06:05:20;;;;;;;;;;;0.80;99.90;;;;;;5104322;28;20089;-70
2023/01/17 06:07:49;;;;;;;;;;;0.80;99.90;;;;;;5105587;28;20101;-69
2023/01/17 06:10:16;;;;;;;;;;;0.70;99.90;;;;;;5122595;28;19920;-70
2023/01/17 06:12:44;;;;;;;;;;;0.80;99.90;;;;;;5124354;28;20093;-69
2023/01/17 06:15:11;;;;;;;;;;;0.80;99.90;;;;;;5124202;28;19987;-69
2023/01/17 06:17:37;;;;;;;;;;;0.70;99.90;;;;;;5122807;28;19926;-70
2023/01/17 06:20:05;;;;;;;;;;;0.80;99.90;;;;;;5119461;28;20229;-69
2023/01/17 06:22:32;;;;;;;;;;;0.80;99.90;;;;;;5124283;28;19979;-68
2023/01/17 06:25:00;;;;;;;;;;;0.80;99.90;;;;;;5123985;28;19920;-67
2023/01/17 06:27:27;;;;;;;;;;;0.80;99.90;;;;;;5123833;28;19983;-71
2023/01/17 06:29:54;;;;;;;;;;;0.80;99.90;;;;;;5124585;28;19988;-69
2023/01/17 06:32:20;;;;;;;;;;;0.80;99.90;;;;;;5124312;28;20024;-69
2023/01/17 06:34:47;;;;;;;;;;;0.80;99.90;;;;;;5123980;28;19964;-69
2023/01/17 06:37:14;;;;;;;;;;;0.80;99.90;;;;;;5123653;28;19983;-70
2023/01/17 06:39:40;;;;;;;;;;;0.80;99.90;;;;;;5124029;28;19990;-69
2023/01/17 06:42:08;;;;;;;;;;;0.80;99.90;;;;;;5119455;28;19979;-69
2023/01/17 06:44:35;;;;;;;;;;;0.80;99.90;;;;;;5103591;28;20204;-69
2023/01/17 06:47:01;;;;;;;;;;;0.70;99.90;;;;;;5109297;28;19984;-69
2023/01/17 06:49:28;;;;;;;;;;;0.80;99.90;;;;;;5124237;28;19919;-68
2023/01/17 06:51:55;;;;;;;;;;;0.80;99.90;;;;;;5124236;28;19987;-69
2023/01/17 06:54:21;;;;;;;;;;;0.80;99.90;;;;;;5106862;28;19920;-69
2023/01/17 06:56:48;;;;;;;;;;;0.80;99.90;;;;;;5102874;28;19955;-69
2023/01/17 06:59:16;;;;;;;;;;;0.80;99.90;;;;;;5117245;28;20005;-69
2023/01/17 07:01:42;;;;;;;;;;;0.70;99.90;;;;;;5124148;28;19920;-69
2023/01/17 07:04:09;;;;;;;;;;;0.60;99.90;;;;;;5115139;28;20015;-70
2023/01/17 07:06:36;;;;;;;;;;;0.50;99.90;;;;;;5121555;28;19919;-69
2023/01/17 07:09:03;;;;;;;;;;;0.50;99.90;;;;;;5110104;28;19920;-69
2023/01/17 07:11:30;;;;;;;;;;;0.40;99.90;;;;;;5114626;28;19962;-70
2023/01/17 07:13:56;;;;;;;;;;;0.50;99.90;;;;;;5103788;28;19931;-70
2023/01/17 07:16:24;;;;;;;;;;;0.50;99.90;;;;;;5112032;28;19982;-69
2023/01/17 07:18:52;;;;;;;;;;;0.50;99.90;;;;;;5113155;28;19920;-69
2023/01/17 07:21:18;;;;;;;;;;;0.60;99.90;;;;;;5120369;28;19927;-69
2023/01/17 07:23:45;;;;;;;;;;;0.50;99.90;;;;;;5103287;28;19926;-69
2023/01/17 07:26:12;;;;;;;;;;;0.60;99.90;;;;;;5118977;28;19982;-69
2023/01/17 07:28:38;;;;;;;;;;;0.60;99.90;;;;;;5108287;28;20291;-69
2023/01/17 07:31:06;;;;;;;;;;;0.60;99.90;;;;;;5104040;28;19920;-70
2023/01/17 07:33:34;;;;;;;;;;;0.50;99.90;;;;;;5113309;28;19928;-69
2023/01/17 07:36:02;;;;;;;;;;;0.60;99.90;;;;;;5106652;28;20139;-69
2023/01/17 07:38:29;;;;;;;;;;;0.60;99.90;;;;;;5112977;28;19983;-69
2023/01/17 07:40:57;;;;;;;;;;;0.60;99.90;;;;;;5107992;28;19959;-69
2023/01/17 07:43:24;;;;;;;;;;;0.60;99.90;;;;;;5106271;28;19922;-70
2023/01/17 07:45:50;;;;;;;;;;;0.60;99.90;;;;;;5121358;28;20164;-69
2023/01/17 07:48:17;;;;;;;;;;;0.50;99.90;;;;;;5106848;28;19979;-69
2023/01/17 07:50:50;;;;;;;;;;;0.60;99.90;;;;;;5112610;28;19920;-69
2023/01/17 07:53:17;;;;;;;;;;;0.50;99.90;;;;;;5123887;28;20121;-69
2023/01/17 07:55:44;;;;;;;;;;;0.60;99.90;;;;;;5107020;28;19979;-69
2023/01/17 07:58:11;;;;;;;;;;;0.50;99.90;;;;;;5124515;28;20132;-69
2023/01/17 08:00:37;;;;;;;;;;;0.60;99.90;;;;;;5126442;28;19920;-69
2023/01/17 08:03:05;;;;;;;;;;;0.60;99.90;;;;;;5127030;28;19983;-69
2023/01/17 08:05:31;;;;;;;;;;;0.70;99.90;;;;;;5124385;28;19956;-71
2023/01/17 08:07:59;;;;;;;;;;;0.70;99.90;;;;;;5119695;28;19920;-69
2023/01/17 08:10:26;;;;;;;;;;;0.70;99.90;;;;;;5126160;28;20219;-69
2023/01/17 08:12:52;;;;;;;;;;;0.70;99.90;;;;;;5114952;28;19983;-69
2023/01/17 08:15:19;;;;;;;;;;;0.70;99.90;;;;;;5109507;28;19974;-69
2023/01/17 08:17:46;;;;;;;;;;;0.80;99.90;;;;;;5113568;28;19995;-69
2023/01/17 08:20:13;;;;;;;;;;;0.80;99.90;;;;;;5126803;28;19965;-69
2023/01/17 08:22:40;;;;;;;;;;;0.80;99.90;;;;;;5116884;28;20115;-69
2023/01/17 08:25:08;;;;;;;;;;;0.80;99.90;;;;;;5125830;28;19987;-69
2023/01/17 08:27:35;;;;;;;;;;;0.80;99.90;;;;;;5125984;28;19920;-69
2023/01/17 08:30:02;;;;;;;;;;;0.70;99.90;;;;;;5117746;28;20275;-69
2023/01/17 08:32:28;;;;;;;;;;;0.70;99.90;;;;;;5126321;28;19974;-69
2023/01/17 08:34:56;;;;;;;;;;;0.70;99.90;;;;;;5122372;28;20014;-69
2023/01/17 08:37:22;;;;;;;;;;;0.70;99.90;;;;;;5119183;28;19958;-69
2023/01/17 08:39:49;;;;;;;;;;;0.70;99.90;;;;;;5125831;28;19959;-70
2023/01/17 08:42:17;;;;;;;;;;;0.70;99.90;;;;;;5125730;28;19919;-69
2023/01/17 08:44:44;;;;;;;;;;;0.80;99.90;;;;;;5125911;28;19919;-69
2023/01/17 08:47:10;;;;;;;;;;;0.80;99.90;;;;;;5114814;28;19987;-69
2023/01/17 08:49:37;;;;;;;;;;;0.70;99.90;;;;;;5105567;28;20291;-69
2023/01/17 08:52:04;;;;;;;;;;;0.80;99.90;;;;;;5105719;28;19955;-69
2023/01/17 08:54:30;;;;;;;;;;;0.80;99.90;;;;;;5112003;28;19924;-69
2023/01/17 08:56:57;;;;;;;;;;;0.80;99.90;;;;;;5120912;28;19920;-69
2023/01/17 08:59:25;;;;;;;;;;;0.80;99.90;;;;;;5114426;28;19920;-69
2023/01/17 09:01:56;;;;;;;;;;;0.80;99.90;;;;;;5107449;28;19920;-69
2023/01/17 09:04:23;;;;;;;;;;;0.80;99.90;;;;;;5119552;28;20230;-69
2023/01/17 09:06:50;;;;;;;;;;;0.90;99.90;;;;;;5104543;28;20287;-69
2023/01/17 09:09:17;;;;;;;;;;;0.90;99.90;;;;;;5115046;28;19951;-69
2023/01/17 09:11:44;;;;;;;;;;;1.00;99.90;;;;;;5111651;28;19942;-69
2023/01/17 09:14:23;;;;;;;;;;;1.00;99.90;;;;;;5102597;28;19987;-69
2023/01/17 09:16:51;;;;;;;;;;;1.10;99.90;;;;;;5111684;28;19920;-70
2023/01/17 09:19:17;;;;;;;;;;;1.10;99.90;;;;;;5124680;28;19990;-69
2023/01/17 09:21:44;;;;;;;;;;;1.20;99.90;;;;;;5125342;28;19958;-70
2023/01/17 09:24:11;;;;;;;;;;;1.20;99.90;;;;;;5105887;28;19951;-69
2023/01/17 09:26:37;;;;;;;;;;;1.30;99.90;;;;;;5109800;28;19920;-70
2023/01/17 09:29:04;;;;;;;;;;;1.30;99.90;;;;;;5113308;28;19932;-69
2023/01/17 09:31:31;;;;;;;;;;;1.30;99.90;;;;;;5108065;28;19955;-70
2023/01/17 09:33:59;;;;;;;;;;;1.40;99.90;;;;;;5111250;28;19990;-69
2023/01/17 09:36:27;;;;;;;;;;;1.40;99.90;;;;;;5124354;28;19937;-70
2023/01/17 09:38:55;;;;;;;;;;;1.40;99.90;;;;;;5119296;28;19952;-69
2023/01/17 09:41:26;;;;;;;;;;;1.50;99.90;;;;;;5104760;28;19992;-69
2023/01/17 09:43:55;;;;;;;;;;;1.50;99.90;;;;;;5104808;28;19986;-69
2023/01/17 09:46:24;;;;;;;;;;;1.50;99.90;;;;;;5113228;28;19920;-69
2023/01/17 09:48:51;;;;;;;;;;;1.60;99.90;;;;;;5125063;28;20182;-69
2023/01/17 09:51:21;;;;;;;;;;;1.60;99.90;;;;;;5114084;28;19969;-69
2023/01/17 09:53:48;;;;;;;;;;;1.70;99.90;;;;;;5112130;28;19983;-70
2023/01/17 09:56:17;;;;;;;;;;;1.70;99.90;;;;;;5115989;28;19926;-70
2023/01/17 09:58:44;;;;;;;;;;;1.80;99.90;;;;;;5111077;28;20118;-70
2023/01/17 10:01:14;;;;;;;;;;;1.90;99.90;;;;;;5114486;28;19927;-70
2023/01/17 10:03:43;;;;;;;;;;;2.00;99.90;;;;;;5113322;28;19919;-69
2023/01/17 10:06:35;;;;;;;;;;;2.00;99.90;;;;;;5115051;28;19987;-69
2023/01/17 10:09:10;;;;;;;;;;;2.10;99.90;;;;;;5104262;28;19986;-70
2023/01/17 10:11:44;;;;;;;;;;;2.20;99.90;;;;;;5104225;28;19926;-69
2023/01/17 10:14:20;;;;;;;;;;;2.30;99.90;;;;;;5104489;28;19924;-70
2023/01/17 10:16:51;;;;;;;;;;;2.30;99.90;;;;;;5122815;28;19919;-69
2023/01/17 10:19:39;;;;;;;;;;;2.40;99.90;;;;;;5124698;28;19926;-70
2023/01/17 10:22:24;;;;;;;;;;;2.40;99.90;;;;;;5107393;28;20189;-69
2023/01/17 10:25:02;;;;;;;;;;;2.50;99.90;;;;;;5124474;28;19920;-69
2023/01/17 10:27:32;;;;;;;;;;;2.50;99.90;;;;;;5122032;28;19919;-69
2023/01/17 10:30:00;;;;;;;;;;;2.60;99.90;;;;;;5116716;28;19926;-70
2023/01/17 10:32:29;;;;;;;;;;;2.60;99.90;;;;;;5114761;28;19920;-71
2023/01/17 10:34:58;;;;;;;;;;;2.70;99.90;;;;;;5100878;28;20012;-72
2023/01/17 10:37:39;;;;;;;;;;;2.70;99.90;;;;;;5105232;28;19926;-70
2023/01/17 10:40:12;;;;;;;;;;;2.80;99.90;;;;;;5112562;28;20245;-71
2023/01/17 10:42:44;;;;;;;;;;;2.90;99.90;;;;;;5104643;28;19945;-70
2023/01/17 10:45:16;;;;;;;;;;;3.00;99.90;;;;;;5105033;28;20251;-70
2023/01/17 10:47:46;;;;;;;;;;;3.00;99.90;;;;;;5116233;28;19926;-70
2023/01/17 10:50:13;;;;;;;;;;;2.90;99.90;;;;;;5113376;28;19920;-70
2023/01/17 10:52:45;;;;;;;;;;;2.80;99.90;;;;;;5117918;28;19948;-69
2023/01/17 10:55:19;;;;;;;;;;;2.80;99.90;;;;;;5121585;28;19947;-70
2023/01/17 10:57:47;;;;;;;;;;;2.80;99.90;;;;;;5120879;28;19991;-70
2023/01/17 11:00:24;;;;;;;;;;;2.70;99.90;;;;;;5103894;28;19920;-69
2023/01/17 11:02:51;;;;;;;;;;;2.70;99.90;;;;;;5102933;28;19987;-70
2023/01/17 11:05:21;;;;;;;;;;;2.60;99.90;;;;;;5110087;28;19988;-69
2023/01/17 11:07:57;;;;;;;;;;;2.60;99.90;;;;;;5122898;28;19919;-69
2023/01/17 11:10:35;;;;;;;;;;;2.60;99.90;;;;;;5123194;28;20211;-69
2023/01/17 11:13:02;;;;;;;;;;;2.60;99.90;;;;;;5110933;28;19920;-69
2023/01/17 11:15:30;;;;;;;;;;;2.70;99.90;;;;;;5107583;28;19920;-69
2023/01/17 11:18:01;;;;;;;;;;;3.00;99.90;;;;;;5109466;28;19943;-69
2023/01/17 11:20:29;;;;;;;;;;;3.30;99.90;;;;;;5127887;28;19990;-69
2023/01/17 11:23:03;;;;;;;;;;;3.60;99.90;;;;;;5127459;28;20110;-69
2023/01/17 11:25:32;;;;;;;;;;;3.90;99.90;;;;;;5114699;28;19970;-69
2023/01/17 11:28:00;;;;;;;;;;;4.20;99.90;;;;;;5106856;28;19920;-69
2023/01/17 11:30:28;;;;;;;;;;;4.40;99.90;;;;;;5116364;28;19924;-69
2023/01/17 11:32:55;;;;;;;;;;;4.70;99.90;;;;;;5107216;28;19920;-70
2023/01/17 11:35:24;;;;;;;;;;;5.00;99.90;;;;;;5110725;28;20225;-69
2023/01/17 11:37:52;;;;;;;;;;;5.10;99.90;;;;;;5106549;28;19920;-69
2023/01/17 11:40:25;;;;;;;;;;;5.30;99.90;;;;;;5118944;28;20165;-69
2023/01/17 11:43:02;;;;;;;;;;;5.40;99.90;;;;;;5120340;28;19919;-69
2023/01/17 11:45:30;;;;;;;;;;;5.50;99.90;;;;;;5126895;28;20271;-69
2023/01/17 11:48:13;;;;;;;;;;;5.80;99.90;;;;;;5123980;28;19924;-69
2023/01/17 11:50:41;;;;;;;;;;;5.90;99.90;;;;;;5118207;28;20243;-69
2023/01/17 11:53:14;;;;;;;;;;;6.00;99.90;;;;;;5125211;28;19983;-70
2023/01/17 11:55:53;;;;;;;;;;;6.00;99.90;;;;;;5120172;28;19958;-69
2023/01/17 11:58:20;;;;;;;;;;;6.10;99.90;;;;;;5123967;28;19942;-70
2023/01/17 12:00:56;;;;;;;;;;;6.10;99.90;;;;;;5110955;28;20163;-70
2023/01/17 12:03:28;;;;;;;;;;;6.10;99.90;;;;;;5121805;28;19919;-70
2023/01/17 12:05:58;;;;;;;;;;;6.00;99.90;;;;;;5123433;28;20139;-69
2023/01/17 12:08:31;;;;;;;;;;;6.00;99.90;;;;;;5111445;28;19920;-69
2023/01/17 12:11:03;;;;;;;;;;;6.10;99.90;;;;;;5107063;28;20115;-70
2023/01/17 12:16:32;;;;;;;;;;;6.30;99.90;;;;;;5105502;28;19957;-69
2023/01/17 12:19:05;;;;;;;;;;;6.40;99.90;;;;;;5121185;28;19920;-69
2023/01/17 12:21:38;;;;;;;;;;;6.60;99.90;;;;;;5126291;28;20208;-69
2023/01/17 12:24:20;;;;;;;;;;;6.70;99.90;;;;;;5116708;28;19979;-68
2023/01/17 12:26:54;;;;;;;;;;;7.00;99.90;;;;;;5105174;28;19920;-68
2023/01/17 12:29:30;;;;;;;;;;;7.00;99.90;;;;;;5113981;28;19983;-72
2023/01/17 12:32:02;;;;;;;;;;;7.20;99.90;;;;;;5126680;28;19920;-70
2023/01/17 12:34:31;;;;;;;;;;;7.20;99.90;;;;;;5117832;28;19920;-69
2023/01/17 12:37:00;;;;;;;;;;;7.20;99.90;;;;;;5106478;28;19927;-69
2023/01/17 12:39:30;;;;;;;;;;;7.20;99.90;;;;;;5105556;28;19921;-69
2023/01/17 12:42:01;;;;;;;;;;;7.40;99.90;;;;;;5107916;28;19920;-69
2023/01/17 12:44:41;;;;;;;;;;;7.50;99.90;;;;;;5107914;28;19936;-70
2023/01/17 12:47:08;;;;;;;;;;;7.60;99.90;;;;;;5120888;28;19991;-69
2023/01/17 12:49:38;;;;;;;;;;;7.50;99.90;;;;;;5104944;28;19958;-68
2023/01/17 12:52:08;;;;;;;;;;;7.40;99.90;;;;;;5105301;28;20183;-69
2023/01/17 12:54:36;;;;;;;;;;;7.60;99.90;;;;;;5111857;28;19954;-69
2023/01/17 12:57:05;;;;;;;;;;;7.60;99.90;;;;;;5125294;28;20255;-69
2023/01/17 12:59:35;;;;;;;;;;;7.70;99.90;;;;;;5125892;28;19987;-69
2023/01/17 13:02:03;;;;;;;;;;;7.60;99.90;;;;;;5125729;28;19926;-67
2023/01/17 13:04:33;;;;;;;;;;;7.50;99.90;;;;;;5125641;28;19926;-71
2023/01/17 13:07:04;;;;;;;;;;;7.60;99.90;;;;;;5122239;28;19919;-69
2023/01/17 13:09:34;;;;;;;;;;;7.60;99.90;;;;;;5125455;28;19920;-69
2023/01/17 13:12:02;;;;;;;;;;;7.70;99.90;;;;;;5125792;28;19920;-70
2023/01/17 13:14:31;;;;;;;;;;;7.60;99.90;;;;;;5125772;28;19920;-70
2023/01/17 13:16:59;;;;;;;;;;;7.40;99.90;;;;;;5125035;28;19951;-70
2023/01/17 13:19:30;;;;;;;;;;;7.30;99.90;;;;;;5125750;28;19970;-69
2023/01/17 13:21:57;;;;;;;;;;;7.10;99.90;;;;;;5125450;28;19920;-69
2023/01/17 13:24:33;;;;;;;;;;;7.00;99.90;;;;;;5125463;28;19991;-70
2023/01/17 13:27:11;;;;;;;;;;;7.00;99.90;;;;;;5124837;28;19927;-69
2023/01/17 13:29:46;;;;;;;;;;;6.80;99.90;;;;;;5124937;28;19927;-70
2023/01/17 13:32:21;;;;;;;;;;;6.70;99.90;;;;;;5125374;28;19978;-70
2023/01/17 13:35:06;;;;;;;;;;;6.60;99.90;;;;;;5125343;28;19920;-69
2023/01/17 13:37:40;;;;;;;;;;;6.50;99.90;;;;;;5124707;28;19954;-70
2023/01/17 13:40:26;;;;;;;;;;;6.60;99.90;;;;;;5125039;28;20212;-69
2023/01/17 13:42:54;;;;;;;;;;;6.70;99.90;;;;;;5124985;28;20377;-70
2023/01/17 13:45:23;;;;;;;;;;;6.60;99.90;;;;;;5124951;28;20329;-69
2023/01/17 13:47:51;;;;;;;;;;;6.40;99.90;;;;;;5124420;28;19995;-69
2023/01/17 13:50:45;;;;;;;;;;;6.30;99.90;;;;;;5124886;28;19951;-70
2023/01/17 13:53:45;;;;;;;;;;;6.00;99.90;;;;;;5109041;28;19991;-69
2023/01/17 13:56:13;;;;;;;;;;;5.70;99.90;;;;;;5124135;28;19990;-70
2023/01/17 13:58:57;;;;;;;;;;;5.40;99.90;;;;;;5124845;28;20167;-70
2023/01/17 14:01:38;;;;;;;;;;;5.30;99.90;;;;;;5124694;28;19926;-69
2023/01/17 14:04:07;;;;;;;;;;;5.10;99.90;;;;;;5124288;28;19926;-69
2023/01/17 14:06:36;;;;;;;;;;;5.00;99.90;;;;;;5123887;28;19952;-69
2023/01/17 14:09:04;;;;;;;;;;;4.90;99.90;;;;;;5124850;28;20203;-69
2023/01/17 14:11:32;;;;;;;;;;;4.90;99.90;;;;;;5108088;28;19920;-69
2023/01/17 14:14:19;;;;;;;;;;;4.70;99.90;;;;;;5104364;28;19985;-69
2023/01/17 14:16:45;;;;;;;;;;;4.50;99.90;;;;;;5103296;28;19927;-69
2023/01/17 14:19:24;;;;;;;;;;;4.40;99.90;;;;;;5104425;28;19920;-70
2023/01/17 14:22:11;;;;;;;;;;;4.30;99.90;;;;;;5104063;28;19942;-69
2023/01/17 14:24:52;;;;;;;;;;;4.20;99.90;;;;;;5103853;28;19927;-69
2023/01/17 14:27:22;;;;;;;;;;;4.10;99.90;;;;;;5103099;28;19979;-68
2023/01/17 14:29:52;;;;;;;;;;;4.10;99.90;;;;;;5104167;28;19920;-69
2023/01/17 14:32:20;;;;;;;;;;;4.00;99.90;;;;;;5103777;28;19920;-69
2023/01/17 14:34:48;;;;;;;;;;;3.90;99.90;;;;;;5103749;28;20118;-68
2023/01/17 14:37:17;;;;;;;;;;;3.80;99.90;;;;;;5103093;28;19999;-69
2023/01/17 14:39:44;;;;;;;;;;;3.80;99.90;;;;;;5103815;28;19927;-69
2023/01/17 14:42:12;;;;;;;;;;;3.80;99.90;;;;;;5106612;28;19957;-69
2023/01/17 14:44:39;;;;;;;;;;;3.70;99.90;;;;;;5108308;28;19920;-69
2023/01/17 14:47:06;;;;;;;;;;;3.70;99.90;;;;;;5107636;28;19927;-69
2023/01/17 14:49:32;;;;;;;;;;;3.70;99.90;;;;;;5108340;28;19978;-69
2023/01/17 14:52:01;;;;;;;;;;;3.60;99.90;;;;;;5128190;28;19983;-69
2023/01/17 14:54:28;;;;;;;;;;;3.60;99.90;;;;;;5128101;28;20118;-69
2023/01/17 14:57:09;;;;;;;;;;;3.50;99.90;;;;;;5128316;28;19951;-68
2023/01/17 14:59:36;;;;;;;;;;;3.50;99.90;;;;;;5128569;28;19953;-68
2023/01/17 15:02:04;;;;;;;;;;;3.40;99.90;;;;;;5128160;28;19963;-68
2023/01/17 15:04:34;;;;;;;;;;;3.30;99.90;;;;;;5127670;28;20227;-69
2023/01/17 15:07:02;;;;;;;;;;;3.20;99.90;;;;;;5124453;28;20146;-68
2023/01/17 15:09:31;;;;;;;;;;;3.20;99.90;;;;;;5128335;28;20154;-69
2023/01/17 15:11:58;;;;;;;;;;;3.20;99.90;;;;;;5119402;28;19926;-68
2023/01/17 15:14:28;;;;;;;;;;;3.20;99.90;;;;;;5107637;28;19920;-68
2023/01/17 15:16:54;;;;;;;;;;;3.20;99.90;;;;;;5107075;28;19942;-68
2023/01/17 15:19:21;;;;;;;;;;;3.10;99.90;;;;;;5107573;28;19979;-69
2023/01/17 15:21:49;;;;;;;;;;;3.10;99.90;;;;;;5107275;28;19920;-68
2023/01/17 15:24:19;;;;;;;;;;;3.00;99.90;;;;;;5107597;28;19920;-69
2023/01/17 15:26:46;;;;;;;;;;;2.90;99.90;;;;;;5106181;28;19990;-69
2023/01/17 15:29:14;;;;;;;;;;;2.90;99.90;;;;;;5107494;28;19963;-69
2023/01/17 15:31:42;;;;;;;;;;;2.90;99.90;;;;;;5107215;28;19921;-69
2023/01/17 15:34:12;;;;;;;;;;;2.90;99.90;;;;;;5127327;28;19928;-69
2023/01/17 15:36:39;;;;;;;;;;;2.80;99.90;;;;;;5126872;28;19926;-69
2023/01/17 15:39:06;;;;;;;;;;;2.80;99.90;;;;;;5127625;28;19962;-69
2023/01/17 15:41:35;;;;;;;;;;;2.80;99.90;;;;;;5127061;28;19926;-68
2023/01/17 15:44:02;;;;;;;;;;;2.80;99.90;;;;;;5127193;28;19986;-69
2023/01/17 15:46:30;;;;;;;;;;;2.80;99.90;;;;;;5126398;28;20207;-69
2023/01/17 15:49:07;;;;;;;;;;;2.70;99.90;;;;;;5126756;28;19920;-69
2023/01/17 15:51:36;;;;;;;;;;;2.70;99.90;;;;;;5126871;28;19983;-69
2023/01/17 15:54:18;;;;;;;;;;;2.70;99.90;;;;;;5127125;28;19951;-69
2023/01/17 15:56:47;;;;;;;;;;;2.70;99.90;;;;;;5124331;28;19920;-69
2023/01/17 15:59:21;;;;;;;;;;;2.70;99.90;;;;;;5121322;28;19952;-69
2023/01/17 16:01:52;;;;;;;;;;;2.70;99.90;;;;;;5106399;28;19959;-69
2023/01/17 16:04:25;;;;;;;;;;;2.70;99.90;;;;;;5122243;28;20164;-69
2023/01/17 16:06:53;;;;;;;;;;;2.70;99.90;;;;;;5122240;28;19988;-69
2023/01/17 16:09:20;;;;;;;;;;;2.70;99.90;;;;;;5106398;28;19986;-69
2023/01/17 16:11:48;;;;;;;;;;;2.60;99.90;;;;;;5122192;28;19924;-69
2023/01/17 16:14:16;;;;;;;;;;;2.60;99.90;;;;;;5126359;28;19920;-69
2023/01/17 16:16:49;;;;;;;;;;;2.60;99.90;;;;;;5126034;28;19926;-69
2023/01/17 16:19:15;;;;;;;;;;;2.60;99.90;;;;;;5105963;28;19920;-69
2023/01/17 16:21:43;;;;;;;;;;;2.50;99.90;;;;;;5113490;28;19926;-69
2023/01/17 16:24:11;;;;;;;;;;;2.50;99.90;;;;;;5122526;28;19920;-70